Map

Track Data

SID SEASON NUMBER BASIN SUBBASIN NAME ISO_TIME NATURE LAT LON WMO_WIND WMO_PRES WMO_AGENCY TRACK_TYPE DIST2LAND LANDFALL IFLAG USA_AGENCY USA_ATCF_ID USA_LAT USA_LON USA_RECORD USA_STATUS USA_WIND USA_PRES USA_SSHS USA_R34_NE USA_R34_SE USA_R34_SW USA_R34_NW USA_R50_NE USA_R50_SE USA_R50_SW USA_R50_NW USA_R64_NE USA_R64_SE USA_R64_SW USA_R64_NW USA_POCI USA_ROCI USA_RMW USA_EYE TOKYO_LAT TOKYO_LON TOKYO_GRADE TOKYO_WIND TOKYO_PRES TOKYO_R50_DIR TOKYO_R50_LONG TOKYO_R50_SHORT TOKYO_R30_DIR TOKYO_R30_LONG TOKYO_R30_SHORT TOKYO_LAND CMA_LAT CMA_LON CMA_CAT CMA_WIND CMA_PRES HKO_LAT HKO_LON HKO_CAT HKO_WIND HKO_PRES NEWDELHI_LAT NEWDELHI_LON NEWDELHI_GRADE NEWDELHI_WIND NEWDELHI_PRES NEWDELHI_CI NEWDELHI_DP NEWDELHI_POCI REUNION_LAT REUNION_LON REUNION_TYPE REUNION_WIND REUNION_PRES REUNION_TNUM REUNION_CI REUNION_RMW REUNION_R34_NE REUNION_R34_SE REUNION_R34_SW REUNION_R34_NW REUNION_R50_NE REUNION_R50_SE REUNION_R50_SW REUNION_R50_NW REUNION_R64_NE REUNION_R64_SE REUNION_R64_SW REUNION_R64_NW BOM_LAT BOM_LON BOM_TYPE BOM_WIND BOM_PRES BOM_TNUM BOM_CI BOM_RMW BOM_R34_NE BOM_R34_SE BOM_R34_SW BOM_R34_NW BOM_R50_NE BOM_R50_SE BOM_R50_SW BOM_R50_NW BOM_R64_NE BOM_R64_SE BOM_R64_SW BOM_R64_NW BOM_ROCI BOM_POCI BOM_EYE BOM_POS_METHOD BOM_PRES_METHOD NADI_LAT NADI_LON NADI_CAT NADI_WIND NADI_PRES WELLINGTON_LAT WELLINGTON_LON WELLINGTON_WIND WELLINGTON_PRES DS824_LAT DS824_LON DS824_STAGE DS824_WIND DS824_PRES TD9636_LAT TD9636_LON TD9636_STAGE TD9636_WIND TD9636_PRES TD9635_LAT TD9635_LON TD9635_WIND TD9635_PRES TD9635_ROCI NEUMANN_LAT NEUMANN_LON NEUMANN_CLASS NEUMANN_WIND NEUMANN_PRES MLC_LAT MLC_LON MLC_CLASS MLC_WIND MLC_PRES USA_GUST BOM_GUST BOM_GUST_PER REUNION_GUST REUNION_GUST_PER USA_SEAHGT USA_SEARAD_NE USA_SEARAD_SE USA_SEARAD_SW USA_SEARAD_NW STORM_SPEED STORM_DIR
1946305N09088 1946 63 NI BB NOT_NAMED 1946-10-31 18:00:00 TS 9.10000 88.1000 main 713 676 O________O____ jtwc_io IO131946 9.10000 88.1000 -1 9.10000 88.1000 TC 11 301
1946305N09088 1946 63 NI BB NOT_NAMED 1946-10-31 21:00:00 TS 9.38006 87.6352 main 669 624 P________P____ IO131946 9.38006 87.6352 -1 9.38006 87.6352 TC 11 297
1946305N09088 1946 63 NI BB NOT_NAMED 1946-11-01 00:00:00 TS 9.60000 87.1000 main 624 568 O________O____ jtwc_io IO131946 9.60000 87.1000 -1 9.60000 87.1000 TC 25 12 286
1946305N09088 1946 63 NI BB NOT_NAMED 1946-11-01 03:00:00 TS 9.71993 86.4399 main 558 493 P________PO___ IO131946 9.72242 86.4448 -1 9.72242 86.4448 TC 25 9.70000 86.4000 1 14 278
1946305N09088 1946 63 NI BB NOT_NAMED 1946-11-01 06:00:00 TS 9.80076 85.6925 main 493 429 O________OP___ jtwc_io IO131946 9.80000 85.7000 -1 9.80000 85.7000 TC 25 9.80382 85.6626 1 15 277
1946305N09088 1946 63 NI BB NOT_NAMED 1946-11-01 09:00:00 TS 9.90141 84.9191 main 419 356 P________PP___ IO131946 9.89986 84.9224 -1 9.89986 84.9224 TC 25 9.90556 84.9101 1 16 277
1946305N09088 1946 63 NI BB NOT_NAMED 1946-11-01 12:00:00 TS 10.0015 84.1092 main 346 278 O________OP___ jtwc_io IO131946 10.0000 84.1000 -1 10.0000 84.1000 TC 25 10.0045 84.1275 1 16 277
1946305N09088 1946 63 NI BB NOT_NAMED 1946-11-01 15:00:00 TS 10.0999 83.2766 main 278 211 P________PO___ IO131946 10.0998 83.2649 -1 10.0998 83.2649 TC 25 10.1000 83.3000 1 17 277
1946305N09088 1946 63 NI BB NOT_NAMED 1946-11-01 18:00:00 TS 10.1974 82.4071 main 202 135 O________OP___ jtwc_io IO131946 10.2000 82.4000 -1 10.2000 82.4000 TC 25 10.1921 82.4212 1 18 276
1946305N09088 1946 63 NI BB NOT_NAMED 1946-11-01 21:00:00 TS 10.2951 81.4966 main 135 87 P________PP___ IO131946 10.3000 81.4850 -1 10.3000 81.4850 TC 25 10.2854 81.5198 1 18 276
1946305N09088 1946 63 NI BB NOT_NAMED 1946-11-02 00:00:00 TS 10.3953 80.6112 main 76 0 O________OP___ jtwc_io IO131946 10.4000 80.6000 -1 10.4000 80.6000 TC 25 10.3859 80.6336 1 17 277
1946305N09088 1946 63 NI BB NOT_NAMED 1946-11-02 03:00:00 TS 10.4948 79.8083 main 0 0 P________PO___ IO131946 10.4923 79.8124 -1 10.4923 79.8124 TC 25 10.5000 79.8000 1 15 278
1946305N09088 1946 63 NI BB NOT_NAMED 1946-11-02 06:00:00 TS 10.6060 79.0918 main 0 0 O________OP___ jtwc_io IO131946 10.6000 79.1000 -1 10.6000 79.1000 TC 25 10.6181 79.0753 1 14 280
1946305N09088 1946 63 NI BB NOT_NAMED 1946-11-02 09:00:00 TS 10.7409 78.4297 main 0 0 P________PP___ IO131946 10.7347 78.4424 -1 10.7347 78.4424 TC 25 10.7534 78.4044 1 13 283
1946305N09088 1946 63 NI AS NOT_NAMED 1946-11-02 12:00:00 TS 10.9040 77.7855 main 0 0 O________OP___ jtwc_io IO131946 10.9000 77.8000 -1 10.9000 77.8000 TC 25 10.9120 77.7564 1 13 285
1946305N09088 1946 63 NI AS NOT_NAMED 1946-11-02 15:00:00 TS 11.0899 77.1099 main 0 0 P________PO___ IO131946 11.0848 77.1149 -1 11.0848 77.1149 TC 25 11.1000 77.1000 1 14 286
1946305N09088 1946 63 NI AS NOT_NAMED 1946-11-02 18:00:00 TS 11.3018 76.3830 main 0 0 O________OP___ jtwc_io IO131946 11.3000 76.4000 -1 11.3000 76.4000 TC 25 11.3053 76.3489 1 15 287
1946305N09088 1946 63 NI AS NOT_NAMED 1946-11-02 21:00:00 TS 11.5368 75.6250 main 0 0 P________PP___ IO131946 11.5350 75.6424 -1 11.5350 75.6424 TC 25 11.5405 75.5901 1 16 289
1946305N09088 1946 63 NI AS NOT_NAMED 1946-11-03 00:00:00 TS 11.8018 74.8871 main 39 39 O________OP___ jtwc_io IO131946 11.8000 74.9000 -1 11.8000 74.9000 TC 25 11.8054 74.8612 1 15 292
1946305N09088 1946 63 NI AS NOT_NAMED 1946-11-03 03:00:00 TS 12.0900 74.2033 main 93 93 P________PO___ IO131946 12.0849 74.2049 -1 12.0849 74.2049 TC 25 12.1000 74.2000 1 14 296
1946305N09088 1946 63 NI AS NOT_NAMED 1946-11-03 06:00:00 TS 12.4014 73.6082 main 137 137 O________OP___ jtwc_io IO131946 12.4000 73.6000 -1 12.4000 73.6000 TC 25 12.4043 73.6245 1 12 301
1946305N09088 1946 63 NI AS NOT_NAMED 1946-11-03 09:00:00 TS 12.7363 73.1156 main 184 182 P________PP___ IO131946 12.7348 73.1123 -1 12.7348 73.1123 TC 25 12.7392 73.1222 1 11 308
1946305N09088 1946 63 NI AS NOT_NAMED 1946-11-03 12:00:00 TS 13.1015 72.6946 main 217 217 O________OP___ jtwc_io IO131946 13.1000 72.7000 -1 13.1000 72.7000 TC 25 13.1045 72.6838 1 11 313
1946305N09088 1946 63 NI AS NOT_NAMED 1946-11-03 15:00:00 TS 13.4850 72.2849 main 242 242 P________PO___ IO131946 13.4775 72.2774 -1 13.4775 72.2774 TC 25 13.5000 72.3000 1 11 316
1946305N09088 1946 63 NI AS NOT_NAMED 1946-11-03 18:00:00 TS 13.9084 71.9044 main 253 248 O________OP___ jtwc_io IO131946 13.9000 71.9000 -1 13.9000 71.9000 TC 25 13.9251 71.9132 1 11 323
1946305N09088 1946 63 NI AS NOT_NAMED 1946-11-03 21:00:00 TS 14.3924 71.5684 main 259 259 P________PP___ IO131946 14.4000 71.5625 -1 14.4000 71.5625 TC 25 14.3772 71.5802 1 11 329
1946305N09088 1946 63 NI AS NOT_NAMED 1946-11-04 00:00:00 TS 14.8803 71.3024 main 269 265 O________OP___ jtwc_io IO131946 14.9000 71.3000 -1 14.9000 71.3000 TC 25 14.8408 71.3071 1 10 334
1946305N09088 1946 63 NI AS NOT_NAMED 1946-11-04 03:00:00 TS 15.3050 71.1132 main 270 260 P________PO___ IO131946 15.3074 71.1198 -1 15.3074 71.1198 TC 25 15.3000 71.1000 1 9 340
1946305N09088 1946 63 NI AS NOT_NAMED 1946-11-04 06:00:00 TS 15.7161 70.9799 main 261 257 O________OP___ jtwc_io IO131946 15.7000 71.0000 -1 15.7000 71.0000 TC 25 15.7482 70.9396 1 9 344
1946305N09088 1946 63 NI AS NOT_NAMED 1946-11-04 09:00:00 TS 16.1624 70.8665 main 258 258 P________PP___ IO131946 16.1500 70.8775 -1 16.1500 70.8775 TC 25 16.1872 70.8445 1 9 349
1946305N09088 1946 63 NI AS NOT_NAMED 1946-11-04 12:00:00 TS 16.6025 70.8008 main 266 253 O________OP___ jtwc_io IO131946 16.6000 70.8000 -1 16.6000 70.8000 TC 25 16.6076 70.8023 1 9 355
1946305N09088 1946 63 NI AS NOT_NAMED 1946-11-04 15:00:00 TS 17.0150 70.7850 main 253 239 P________PO___ IO131946 17.0225 70.7774 -1 17.0225 70.7774 TC 30 17.0000 70.8000 1 8 359
1946305N09088 1946 63 NI AS NOT_NAMED 1946-11-04 18:00:00 TS 17.3886 70.7992 main 239 229 O________OP___ jtwc_io IO131946 17.4000 70.8000 -1 17.4000 70.8000 TC 35 17.3659 70.7977 1 7 3
1946305N09088 1946 63 NI AS NOT_NAMED 1946-11-04 21:00:00 TS 17.7108 70.8341 main 229 212 P________PP___ IO131946 17.7150 70.8350 -1 17.7150 70.8350 TC 35 17.7024 70.8324 1 6 9
1946305N09088 1946 63 NI AS NOT_NAMED 1946-11-05 00:00:00 TS 18.0042 70.9003 main 212 200 O________OP___ jtwc_io IO131946 18.0000 70.9000 -1 18.0000 70.9000 TC 35 18.0127 70.9009 1 6 14
1946305N09088 1946 63 NI AS NOT_NAMED 1946-11-05 03:00:00 TS 18.3050 70.9900 main 200 182 P________PO___ IO131946 18.3075 70.9850 -1 18.3075 70.9850 TC 35 18.3000 71.0000 3 6 18
1946305N09088 1946 63 NI AS NOT_NAMED 1946-11-05 06:00:00 TS 18.5932 71.1017 main 182 168 O________OP___ jtwc_io IO131946 18.6000 71.1000 -1 18.6000 71.1000 TC 35 18.5796 71.1051 3 6 23
1946305N09088 1946 63 NI AS NOT_NAMED 1946-11-05 09:00:00 TS 18.8558 71.2367 main 168 143 P________PP___ IO131946 18.8650 71.2350 -1 18.8650 71.2350 TC 35 18.8374 71.2401 3 6 30
1946305N09088 1946 63 NI AS NOT_NAMED 1946-11-05 12:00:00 TS 19.0921 71.4017 main 143 117 O________OP___ jtwc_io IO131946 19.1000 71.4000 -1 19.1000 71.4000 TC 35 19.0764 71.4051 3 6 37
1946305N09088 1946 63 NI AS NOT_NAMED 1946-11-05 15:00:00 TS 19.3050 71.5900 main 117 94 P________PO___ IO131946 19.3075 71.5851 -1 19.3075 71.5851 TC 35 19.3000 71.6000 3 6 43
1946305N09088 1946 63 NI AS NOT_NAMED 1946-11-05 18:00:00 TS 19.5045 71.8094 main 94 73 O________OP___ jtwc_io IO131946 19.5000 71.8000 -1 19.5000 71.8000 TC 35 19.5112 71.8235 3 6 48
1946305N09088 1946 63 NI AS NOT_NAMED 1946-11-05 21:00:00 TS 19.7041 72.0540 main 62 41 P________PP___ IO131946 19.6976 72.0424 -1 19.6976 72.0424 TC 30 19.7129 72.0695 3 6 50
1946305N09088 1946 63 NI AS NOT_NAMED 1946-11-06 00:00:00 TS 19.9041 72.3154 main 41 20 O________OP___ jtwc_io IO131946 19.9000 72.3000 -1 19.9000 72.3000 TC 25 19.9082 72.3307 3 7 52
1946305N09088 1946 63 NI AS NOT_NAMED 1946-11-06 03:00:00 NR 20.1000 72.6000 main 20 __________O___ IO131946 -1 TC 20.1000 72.6000 1 7 54

About IBTrACS Database

This database is a web-friendly format of International Best Track Archive for Climate Stewardship (IBTrACS), a global best track data archive curated by NOAA dating back to 1842.

Updated: 2021-12-03